Denmark, WI (54208)

7:14 PM CDT on October 21, 2014 (GMT -0500)
Bellevue | Change Station
CLOSE
Current Station
Personal Weather Station
Location: Green Bay, WI
Elevation: 614 ft
Nearby Weather Stations

Elev 614 ft 44.46 °N, 87.98 °W | Updated 9 minutes ago

Clear
Clear
43.2 °F
Feels Like 43 °F
N
0.0
Wind Variable Wind from WNW
Gusts 0.0 mph

Today
High -- | Low -- °F
--% Chance of Precip.
Yesterday
High -- | Low -- °F
Precip. -- in
7:14 AM 5:57 PM
Waning Crescent, 4% visible
Pressure 30.27 in
Visibility 10.0 miles
Clouds Clear
Windchill 43 °F
Dew Point 34 °F
Humidity 69%
Rainfall 0.00 in
Snow Depth Not available.
UV 0 out of 12
Pollen 1.20 out of 12
PM2.5 Good
Flu Activity Sporadic
METAR KGRB 212353Z 01003KT 10SM CLR 06/02 A3025 RMK AO2 SLP251 T00560022 10106 20056 51007

More Conditions Fewer Conditions

Pressure 30.27 in
Visibility 10.0 miles
Clouds Clear
Windchill 43 °F
Dew Point 34 °F
Humidity 69%
Rainfall 0.00 in
Snow Depth Not available.
UV 0 out of 12
Pollen 1.20 out of 12
PM2.5 Good
Flu Activity Sporadic
METAR KGRB 212353Z 01003KT 10SM CLR 06/02 A3025 RMK AO2 SLP251 T00560022 10106 20056 51007

More Conditions Fewer Conditions

10-Day Weather Forecast

Almanac

Astronomy

Oct. 21, 2014 Rise Set
Actual Time 7:14 AM CDT 5:57 PM CDT
Civil Twilight 6:44 AM CDT 6:26 PM CDT
Nautical Twilight 6:10 AM CDT 7:00 PM CDT
Astronomical Twilight 5:37 AM CDT 7:34 PM CDT
Moon 4:53 AM CDT (10/21) 4:55 PM CDT (10/21)
Length of Visible Light 11h 42m
Length of Day
10h 43m
Tomorrow will be 2m 54s shorter.
Waning Crescent, 4% of the Moon is Illuminated
Today
Waning Crescent
Oct 23
New
Oct 30
First Quarter
Nov 6
Full
Nov 14
Last Quarter

Today's Extremes

State Highs State Lows

Community

WunderPhotos

Upload Photos

1,763,826 photos uploaded!

Nearby

Air Quality

  Air Quality AQ Index Pollutant
Yesterday Good
PM2.5
Current Good
PM2.5
Tuesday Good
PM2.5
Wednesday Good
PM2.5
Thursday Good
PM2.5
Friday Good
PM2.5
Saturday Good
PM2.5
Sunday Good
PM2.5

Snow Depth

Station Depth Elevation
No new snow has been reported.

Earthquake Activity

City Distance Mag. Time & Date
No recent earthquake activity has been reported nearby.
Minimum magnitude displayed is 2.5.

Coastal Water Temperatures

Place Temperature
Menominee, MI 51.1 °F

Nearby Weather Stations